sensor_id;sensor_type;location;lat;lon;timestamp;temperature;humidity
11497;DHT22;5805;51.542;7.230;2023-07-31T00:00:31;18.50;99.90
11497;DHT22;5805;51.542;7.230;2023-07-31T00:02:57;18.50;99.90
11497;DHT22;5805;51.542;7.230;2023-07-31T00:05:24;18.60;99.90
11497;DHT22;5805;51.542;7.230;2023-07-31T00:07:50;18.60;99.90
11497;DHT22;5805;51.542;7.230;2023-07-31T00:10:15;18.60;99.90
11497;DHT22;5805;51.542;7.230;2023-07-31T00:12:43;18.60;99.90
11497;DHT22;5805;51.542;7.230;2023-07-31T00:15:10;18.60;99.90
11497;DHT22;5805;51.542;7.230;2023-07-31T00:17:36;18.60;99.90
11497;DHT22;5805;51.542;7.230;2023-07-31T00:20:02;18.70;99.90
11497;DHT22;5805;51.542;7.230;2023-07-31T00:22:30;18.60;99.90
11497;DHT22;5805;51.542;7.230;2023-07-31T00:24:56;18.60;99.90
11497;DHT22;5805;51.542;7.230;2023-07-31T00:27:21;18.60;99.90
11497;DHT22;5805;51.542;7.230;2023-07-31T00:29:47;18.60;99.90
11497;DHT22;5805;51.542;7.230;2023-07-31T00:32:13;18.60;99.90
11497;DHT22;5805;51.542;7.230;2023-07-31T00:34:38;18.70;99.90
11497;DHT22;5805;51.542;7.230;2023-07-31T00:37:04;18.60;99.90
11497;DHT22;5805;51.542;7.230;2023-07-31T00:39:33;18.70;99.90
11497;DHT22;5805;51.542;7.230;2023-07-31T00:41:59;18.70;99.90
11497;DHT22;5805;51.542;7.230;2023-07-31T00:44:25;18.60;99.90
11497;DHT22;5805;51.542;7.230;2023-07-31T00:46:51;18.60;99.90
11497;DHT22;5805;51.542;7.230;2023-07-31T00:49:16;18.60;99.90
11497;DHT22;5805;51.542;7.230;2023-07-31T00:51:42;18.50;99.90
11497;DHT22;5805;51.542;7.230;2023-07-31T00:54:08;18.50;99.90
11497;DHT22;5805;51.542;7.230;2023-07-31T00:56:35;18.50;99.90
11497;DHT22;5805;51.542;7.230;2023-07-31T00:59:01;18.40;99.90
11497;DHT22;5805;51.542;7.230;2023-07-31T01:01:27;18.40;99.90
11497;DHT22;5805;51.542;7.230;2023-07-31T01:03:53;18.50;99.90
11497;DHT22;5805;51.542;7.230;2023-07-31T01:06:29;18.50;99.90
11497;DHT22;5805;51.542;7.230;2023-07-31T01:09:00;18.50;99.90
11497;DHT22;5805;51.542;7.230;2023-07-31T01:11:29;18.50;99.90
11497;DHT22;5805;51.542;7.230;2023-07-31T01:13:57;18.50;99.90
11497;DHT22;5805;51.542;7.230;2023-07-31T01:16:23;18.60;99.90
11497;DHT22;5805;51.542;7.230;2023-07-31T01:18:48;18.60;99.90
11497;DHT22;5805;51.542;7.230;2023-07-31T01:21:25;18.60;99.90
11497;DHT22;5805;51.542;7.230;2023-07-31T01:26:47;18.60;99.90
11497;DHT22;5805;51.542;7.230;2023-07-31T01:29:17;18.60;99.90
11497;DHT22;5805;51.542;7.230;2023-07-31T01:31:48;18.60;99.90
11497;DHT22;5805;51.542;7.230;2023-07-31T01:34:17;18.60;99.90
11497;DHT22;5805;51.542;7.230;2023-07-31T01:36:43;18.70;99.90
11497;DHT22;5805;51.542;7.230;2023-07-31T01:39:09;18.60;99.90
11497;DHT22;5805;51.542;7.230;2023-07-31T01:41:35;18.60;99.90
11497;DHT22;5805;51.542;7.230;2023-07-31T01:44:02;18.60;99.90
11497;DHT22;5805;51.542;7.230;2023-07-31T01:46:28;18.60;99.90
11497;DHT22;5805;51.542;7.230;2023-07-31T01:48:53;18.60;99.90
11497;DHT22;5805;51.542;7.230;2023-07-31T01:51:19;18.60;99.90
11497;DHT22;5805;51.542;7.230;2023-07-31T01:53:44;18.60;99.90
11497;DHT22;5805;51.542;7.230;2023-07-31T01:56:10;18.60;99.90
11497;DHT22;5805;51.542;7.230;2023-07-31T01:58:36;18.60;99.90
11497;DHT22;5805;51.542;7.230;2023-07-31T02:01:03;18.60;99.90
11497;DHT22;5805;51.542;7.230;2023-07-31T02:03:28;18.60;99.90
11497;DHT22;5805;51.542;7.230;2023-07-31T02:05:54;18.60;99.90
11497;DHT22;5805;51.542;7.230;2023-07-31T02:08:20;18.50;99.90
11497;DHT22;5805;51.542;7.230;2023-07-31T02:10:46;18.50;99.90
11497;DHT22;5805;51.542;7.230;2023-07-31T02:13:11;18.50;99.90
11497;DHT22;5805;51.542;7.230;2023-07-31T02:15:37;18.50;99.90
11497;DHT22;5805;51.542;7.230;2023-07-31T02:18:04;18.50;99.90
11497;DHT22;5805;51.542;7.230;2023-07-31T02:20:33;18.50;99.90
11497;DHT22;5805;51.542;7.230;2023-07-31T02:22:59;18.50;99.90
11497;DHT22;5805;51.542;7.230;2023-07-31T02:25:24;18.50;99.90
11497;DHT22;5805;51.542;7.230;2023-07-31T02:27:50;18.50;99.90
11497;DHT22;5805;51.542;7.230;2023-07-31T02:30:16;18.50;99.90
11497;DHT22;5805;51.542;7.230;2023-07-31T02:32:41;18.50;99.90
11497;DHT22;5805;51.542;7.230;2023-07-31T02:35:09;18.50;99.90
11497;DHT22;5805;51.542;7.230;2023-07-31T02:37:34;18.50;99.90
11497;DHT22;5805;51.542;7.230;2023-07-31T02:40:00;18.50;99.90
11497;DHT22;5805;51.542;7.230;2023-07-31T02:42:26;18.50;99.90
11497;DHT22;5805;51.542;7.230;2023-07-31T02:44:51;18.50;99.90
11497;DHT22;5805;51.542;7.230;2023-07-31T02:47:17;18.50;99.90
11497;DHT22;5805;51.542;7.230;2023-07-31T02:49:43;18.50;99.90
11497;DHT22;5805;51.542;7.230;2023-07-31T02:52:10;18.50;99.90
11497;DHT22;5805;51.542;7.230;2023-07-31T02:54:36;18.50;99.90
11497;DHT22;5805;51.542;7.230;2023-07-31T02:57:01;18.50;99.90
11497;DHT22;5805;51.542;7.230;2023-07-31T02:59:28;18.50;99.90
11497;DHT22;5805;51.542;7.230;2023-07-31T03:01:53;18.50;99.90
11497;DHT22;5805;51.542;7.230;2023-07-31T03:04:19;18.50;99.90
11497;DHT22;5805;51.542;7.230;2023-07-31T03:06:45;18.50;99.90
11497;DHT22;5805;51.542;7.230;2023-07-31T03:09:12;18.50;99.90
11497;DHT22;5805;51.542;7.230;2023-07-31T03:11:37;18.50;99.90
11497;DHT22;5805;51.542;7.230;2023-07-31T03:14:03;18.50;99.90
11497;DHT22;5805;51.542;7.230;2023-07-31T03:16:29;18.50;99.90
11497;DHT22;5805;51.542;7.230;2023-07-31T03:18:54;18.50;99.90
11497;DHT22;5805;51.542;7.230;2023-07-31T03:21:20;18.50;99.90
11497;DHT22;5805;51.542;7.230;2023-07-31T03:23:46;18.50;99.90
11497;DHT22;5805;51.542;7.230;2023-07-31T03:26:13;18.50;99.90
11497;DHT22;5805;51.542;7.230;2023-07-31T03:28:38;18.50;99.90
11497;DHT22;5805;51.542;7.230;2023-07-31T03:31:04;18.50;99.90
11497;DHT22;5805;51.542;7.230;2023-07-31T03:33:30;18.60;99.90
11497;DHT22;5805;51.542;7.230;2023-07-31T03:35:55;18.50;99.90
11497;DHT22;5805;51.542;7.230;2023-07-31T03:38:21;18.60;99.90
11497;DHT22;5805;51.542;7.230;2023-07-31T03:40:47;18.50;99.90
11497;DHT22;5805;51.542;7.230;2023-07-31T03:43:15;18.60;99.90
11497;DHT22;5805;51.542;7.230;2023-07-31T03:45:41;18.60;99.90
11497;DHT22;5805;51.542;7.230;2023-07-31T03:48:06;18.50;99.90
11497;DHT22;5805;51.542;7.230;2023-07-31T03:50:32;18.60;99.90
11497;DHT22;5805;51.542;7.230;2023-07-31T03:52:58;18.60;99.90
11497;DHT22;5805;51.542;7.230;2023-07-31T03:55:23;18.50;99.90
11497;DHT22;5805;51.542;7.230;2023-07-31T03:57:49;18.60;99.90
11497;DHT22;5805;51.542;7.230;2023-07-31T04:00:16;18.50;99.90
11497;DHT22;5805;51.542;7.230;2023-07-31T04:02:42;18.50;99.90
11497;DHT22;5805;51.542;7.230;2023-07-31T04:05:08;18.60;99.90
11497;DHT22;5805;51.542;7.230;2023-07-31T04:07:33;18.60;99.90
11497;DHT22;5805;51.542;7.230;2023-07-31T04:10:00;18.60;99.90
11497;DHT22;5805;51.542;7.230;2023-07-31T04:12:25;18.60;99.90
11497;DHT22;5805;51.542;7.230;2023-07-31T04:14:51;18.70;99.90
11497;DHT22;5805;51.542;7.230;2023-07-31T04:17:19;18.70;99.90
11497;DHT22;5805;51.542;7.230;2023-07-31T04:19:44;18.60;99.90
11497;DHT22;5805;51.542;7.230;2023-07-31T04:22:10;18.70;99.90
11497;DHT22;5805;51.542;7.230;2023-07-31T04:24:36;18.70;99.90
11497;DHT22;5805;51.542;7.230;2023-07-31T04:27:01;18.70;99.90
11497;DHT22;5805;51.542;7.230;2023-07-31T04:29:27;18.70;99.90
11497;DHT22;5805;51.542;7.230;2023-07-31T04:31:53;18.70;99.90
11497;DHT22;5805;51.542;7.230;2023-07-31T04:34:20;18.80;99.90
11497;DHT22;5805;51.542;7.230;2023-07-31T04:36:45;18.80;99.90
11497;DHT22;5805;51.542;7.230;2023-07-31T04:39:11;18.80;99.90
11497;DHT22;5805;51.542;7.230;2023-07-31T04:41:37;18.90;99.90
11497;DHT22;5805;51.542;7.230;2023-07-31T04:44:03;18.90;99.90
11497;DHT22;5805;51.542;7.230;2023-07-31T04:46:28;18.90;99.90
11497;DHT22;5805;51.542;7.230;2023-07-31T04:48:54;18.90;99.90
11497;DHT22;5805;51.542;7.230;2023-07-31T04:51:21;18.90;99.90
11497;DHT22;5805;51.542;7.230;2023-07-31T04:53:47;18.90;99.90
11497;DHT22;5805;51.542;7.230;2023-07-31T04:56:12;19.00;99.90
11497;DHT22;5805;51.542;7.230;2023-07-31T04:58:38;19.00;99.90
11497;DHT22;5805;51.542;7.230;2023-07-31T05:01:04;19.00;99.90
11497;DHT22;5805;51.542;7.230;2023-07-31T05:03:29;19.00;99.90
11497;DHT22;5805;51.542;7.230;2023-07-31T05:05:55;19.00;99.90
11497;DHT22;5805;51.542;7.230;2023-07-31T05:08:22;19.00;99.90
11497;DHT22;5805;51.542;7.230;2023-07-31T05:10:48;19.00;99.90
11497;DHT22;5805;51.542;7.230;2023-07-31T05:13:13;19.00;99.90
11497;DHT22;5805;51.542;7.230;2023-07-31T05:15:40;19.00;99.90
11497;DHT22;5805;51.542;7.230;2023-07-31T05:18:06;19.00;99.90
11497;DHT22;5805;51.542;7.230;2023-07-31T05:20:31;19.10;99.90
11497;DHT22;5805;51.542;7.230;2023-07-31T05:22:57;19.10;99.90
11497;DHT22;5805;51.542;7.230;2023-07-31T05:25:24;19.00;99.90
11497;DHT22;5805;51.542;7.230;2023-07-31T05:27:50;19.10;99.90
11497;DHT22;5805;51.542;7.230;2023-07-31T05:30:16;19.10;99.90
11497;DHT22;5805;51.542;7.230;2023-07-31T05:32:41;19.10;99.90
11497;DHT22;5805;51.542;7.230;2023-07-31T05:35:07;19.10;99.90
11497;DHT22;5805;51.542;7.230;2023-07-31T05:37:33;19.00;99.90
11497;DHT22;5805;51.542;7.230;2023-07-31T05:39:59;19.10;99.90
11497;DHT22;5805;51.542;7.230;2023-07-31T05:42:26;19.00;99.90
11497;DHT22;5805;51.542;7.230;2023-07-31T05:44:51;19.10;99.90
11497;DHT22;5805;51.542;7.230;2023-07-31T05:47:17;19.10;99.90
11497;DHT22;5805;51.542;7.230;2023-07-31T05:49:43;19.10;99.90
11497;DHT22;5805;51.542;7.230;2023-07-31T05:52:09;19.10;99.90
11497;DHT22;5805;51.542;7.230;2023-07-31T05:54:34;19.10;99.90
11497;DHT22;5805;51.542;7.230;2023-07-31T05:57:00;19.20;99.90
11497;DHT22;5805;51.542;7.230;2023-07-31T05:59:27;19.20;99.90
11497;DHT22;5805;51.542;7.230;2023-07-31T06:01:53;19.20;99.90
11497;DHT22;5805;51.542;7.230;2023-07-31T06:04:18;19.20;99.90
11497;DHT22;5805;51.542;7.230;2023-07-31T06:06:44;19.20;99.90
11497;DHT22;5805;51.542;7.230;2023-07-31T06:09:10;19.10;99.90
11497;DHT22;5805;51.542;7.230;2023-07-31T06:11:36;19.10;99.90
11497;DHT22;5805;51.542;7.230;2023-07-31T06:14:01;19.10;99.90
11497;DHT22;5805;51.542;7.230;2023-07-31T06:16:28;19.10;99.90
11497;DHT22;5805;51.542;7.230;2023-07-31T06:18:54;19.10;99.90
11497;DHT22;5805;51.542;7.230;2023-07-31T06:21:19;19.10;99.90
11497;DHT22;5805;51.542;7.230;2023-07-31T06:23:45;19.10;99.90
11497;DHT22;5805;51.542;7.230;2023-07-31T06:26:11;19.20;99.90
11497;DHT22;5805;51.542;7.230;2023-07-31T06:28:36;19.20;99.90
11497;DHT22;5805;51.542;7.230;2023-07-31T06:31:02;19.20;99.90
11497;DHT22;5805;51.542;7.230;2023-07-31T06:33:29;19.20;99.90
11497;DHT22;5805;51.542;7.230;2023-07-31T06:35:55;19.30;99.90
11497;DHT22;5805;51.542;7.230;2023-07-31T06:38:24;19.30;99.90
11497;DHT22;5805;51.542;7.230;2023-07-31T06:40:50;19.20;99.90
11497;DHT22;5805;51.542;7.230;2023-07-31T06:43:15;19.30;99.90
11497;DHT22;5805;51.542;7.230;2023-07-31T06:45:41;19.30;99.90
11497;DHT22;5805;51.542;7.230;2023-07-31T06:48:07;19.20;99.90
11497;DHT22;5805;51.542;7.230;2023-07-31T06:50:34;19.30;99.90
11497;DHT22;5805;51.542;7.230;2023-07-31T06:52:59;19.20;99.90
11497;DHT22;5805;51.542;7.230;2023-07-31T06:55:26;19.30;99.90
11497;DHT22;5805;51.542;7.230;2023-07-31T06:57:53;19.40;99.90
11497;DHT22;5805;51.542;7.230;2023-07-31T07:00:20;19.40;99.90
11497;DHT22;5805;51.542;7.230;2023-07-31T07:02:46;19.30;99.90
11497;DHT22;5805;51.542;7.230;2023-07-31T07:05:12;19.30;99.90
11497;DHT22;5805;51.542;7.230;2023-07-31T07:07:40;19.30;99.90
11497;DHT22;5805;51.542;7.230;2023-07-31T07:10:06;19.40;99.90
11497;DHT22;5805;51.542;7.230;2023-07-31T07:12:32;19.40;99.90
11497;DHT22;5805;51.542;7.230;2023-07-31T07:14:58;19.40;99.90
11497;DHT22;5805;51.542;7.230;2023-07-31T07:17:24;19.40;99.90
11497;DHT22;5805;51.542;7.230;2023-07-31T07:19:50;19.40;99.90
11497;DHT22;5805;51.542;7.230;2023-07-31T07:22:16;19.40;99.90
11497;DHT22;5805;51.542;7.230;2023-07-31T07:24:43;19.40;99.90
11497;DHT22;5805;51.542;7.230;2023-07-31T07:27:08;19.60;99.90
11497;DHT22;5805;51.542;7.230;2023-07-31T07:29:35;19.60;99.90
11497;DHT22;5805;51.542;7.230;2023-07-31T07:32:01;19.60;99.90
11497;DHT22;5805;51.542;7.230;2023-07-31T07:34:27;19.70;99.90
11497;DHT22;5805;51.542;7.230;2023-07-31T07:36:53;19.70;99.90
11497;DHT22;5805;51.542;7.230;2023-07-31T07:39:19;19.70;99.90
11497;DHT22;5805;51.542;7.230;2023-07-31T07:41:46;19.70;99.90
11497;DHT22;5805;51.542;7.230;2023-07-31T07:44:12;19.80;99.90
11497;DHT22;5805;51.542;7.230;2023-07-31T07:46:38;19.90;99.90
11497;DHT22;5805;51.542;7.230;2023-07-31T07:49:03;20.00;99.90
11497;DHT22;5805;51.542;7.230;2023-07-31T07:51:29;20.00;99.90
11497;DHT22;5805;51.542;7.230;2023-07-31T07:53:55;20.00;99.90
11497;DHT22;5805;51.542;7.230;2023-07-31T07:56:21;19.80;99.90
11497;DHT22;5805;51.542;7.230;2023-07-31T07:58:50;19.80;99.90
11497;DHT22;5805;51.542;7.230;2023-07-31T08:01:15;19.80;99.90
11497;DHT22;5805;51.542;7.230;2023-07-31T08:03:41;19.70;99.90
11497;DHT22;5805;51.542;7.230;2023-07-31T08:06:07;19.70;99.90
11497;DHT22;5805;51.542;7.230;2023-07-31T08:08:33;19.70;99.90
11497;DHT22;5805;51.542;7.230;2023-07-31T08:10:58;19.70;99.90
11497;DHT22;5805;51.542;7.230;2023-07-31T08:13:24;19.60;99.90
11497;DHT22;5805;51.542;7.230;2023-07-31T08:15:51;19.60;99.90
11497;DHT22;5805;51.542;7.230;2023-07-31T08:18:17;19.60;99.90
11497;DHT22;5805;51.542;7.230;2023-07-31T08:20:42;19.70;99.90
11497;DHT22;5805;51.542;7.230;2023-07-31T08:23:08;19.70;99.90
11497;DHT22;5805;51.542;7.230;2023-07-31T08:25:34;19.80;99.90
11497;DHT22;5805;51.542;7.230;2023-07-31T08:28:00;19.70;99.90
11497;DHT22;5805;51.542;7.230;2023-07-31T08:30:26;19.80;99.90
11497;DHT22;5805;51.542;7.230;2023-07-31T08:32:53;19.80;99.90
11497;DHT22;5805;51.542;7.230;2023-07-31T08:35:18;19.80;99.90
11497;DHT22;5805;51.542;7.230;2023-07-31T08:37:44;19.90;99.90
11497;DHT22;5805;51.542;7.230;2023-07-31T08:40:11;20.00;99.90
11497;DHT22;5805;51.542;7.230;2023-07-31T08:42:43;20.10;99.90
11497;DHT22;5805;51.542;7.230;2023-07-31T08:45:09;20.10;99.90
11497;DHT22;5805;51.542;7.230;2023-07-31T08:47:37;20.20;99.90
11497;DHT22;5805;51.542;7.230;2023-07-31T08:50:06;20.20;99.90
11497;DHT22;5805;51.542;7.230;2023-07-31T08:52:32;20.10;99.90
11497;DHT22;5805;51.542;7.230;2023-07-31T08:54:58;20.20;99.90
11497;DHT22;5805;51.542;7.230;2023-07-31T08:57:23;20.10;99.90
11497;DHT22;5805;51.542;7.230;2023-07-31T08:59:49;20.10;99.90
11497;DHT22;5805;51.542;7.230;2023-07-31T09:02:16;20.10;99.90
11497;DHT22;5805;51.542;7.230;2023-07-31T09:04:43;20.20;99.90
11497;DHT22;5805;51.542;7.230;2023-07-31T09:07:10;20.20;99.90
11497;DHT22;5805;51.542;7.230;2023-07-31T09:09:37;20.30;99.90
11497;DHT22;5805;51.542;7.230;2023-07-31T09:12:03;20.30;99.90
11497;DHT22;5805;51.542;7.230;2023-07-31T09:14:29;20.30;99.90
11497;DHT22;5805;51.542;7.230;2023-07-31T09:16:55;20.30;99.90
11497;DHT22;5805;51.542;7.230;2023-07-31T09:19:29;20.30;99.90
11497;DHT22;5805;51.542;7.230;2023-07-31T09:21:55;20.40;99.90
11497;DHT22;5805;51.542;7.230;2023-07-31T09:24:29;20.40;99.90
11497;DHT22;5805;51.542;7.230;2023-07-31T09:26:56;20.30;99.90
11497;DHT22;5805;51.542;7.230;2023-07-31T09:29:22;20.30;99.90
11497;DHT22;5805;51.542;7.230;2023-07-31T09:31:48;20.30;99.90
11497;DHT22;5805;51.542;7.230;2023-07-31T09:34:14;20.30;99.90
11497;DHT22;5805;51.542;7.230;2023-07-31T09:36:40;20.30;99.90
11497;DHT22;5805;51.542;7.230;2023-07-31T09:39:09;20.30;99.90
11497;DHT22;5805;51.542;7.230;2023-07-31T09:41:37;20.30;99.90
11497;DHT22;5805;51.542;7.230;2023-07-31T09:44:03;20.30;99.90
11497;DHT22;5805;51.542;7.230;2023-07-31T09:46:30;20.20;99.90
11497;DHT22;5805;51.542;7.230;2023-07-31T09:49:04;20.20;99.90
11497;DHT22;5805;51.542;7.230;2023-07-31T09:51:30;20.20;99.90
11497;DHT22;5805;51.542;7.230;2023-07-31T09:53:55;20.30;99.90
11497;DHT22;5805;51.542;7.230;2023-07-31T09:56:21;20.40;99.90
11497;DHT22;5805;51.542;7.230;2023-07-31T09:58:50;20.40;99.90
11497;DHT22;5805;51.542;7.230;2023-07-31T10:01:16;20.40;99.90
11497;DHT22;5805;51.542;7.230;2023-07-31T10:03:43;20.40;99.90
11497;DHT22;5805;51.542;7.230;2023-07-31T10:06:11;20.50;99.90
11497;DHT22;5805;51.542;7.230;2023-07-31T10:08:37;20.60;99.90
11497;DHT22;5805;51.542;7.230;2023-07-31T10:11:04;20.60;99.90
11497;DHT22;5805;51.542;7.230;2023-07-31T10:13:32;20.70;99.90
11497;DHT22;5805;51.542;7.230;2023-07-31T10:16:00;20.70;99.90
11497;DHT22;5805;51.542;7.230;2023-07-31T10:18:26;20.80;99.90
11497;DHT22;5805;51.542;7.230;2023-07-31T10:20:52;20.80;99.90
11497;DHT22;5805;51.542;7.230;2023-07-31T10:23:18;20.80;99.90
11497;DHT22;5805;51.542;7.230;2023-07-31T10:25:45;20.80;99.90
11497;DHT22;5805;51.542;7.230;2023-07-31T10:28:11;20.80;99.90
11497;DHT22;5805;51.542;7.230;2023-07-31T10:30:38;20.80;99.90
11497;DHT22;5805;51.542;7.230;2023-07-31T10:33:06;20.80;99.90
11497;DHT22;5805;51.542;7.230;2023-07-31T10:35:33;20.80;99.90
11497;DHT22;5805;51.542;7.230;2023-07-31T10:38:10;20.70;99.90
11497;DHT22;5805;51.542;7.230;2023-07-31T10:40:35;20.70;99.90
11497;DHT22;5805;51.542;7.230;2023-07-31T10:43:01;20.70;99.90
11497;DHT22;5805;51.542;7.230;2023-07-31T10:45:35;20.60;99.90
11497;DHT22;5805;51.542;7.230;2023-07-31T10:48:01;20.50;99.90
11497;DHT22;5805;51.542;7.230;2023-07-31T10:50:30;20.50;99.90
11497;DHT22;5805;51.542;7.230;2023-07-31T10:52:56;20.40;99.90
11497;DHT22;5805;51.542;7.230;2023-07-31T10:55:27;20.30;99.90
11497;DHT22;5805;51.542;7.230;2023-07-31T10:57:54;20.10;99.90
11497;DHT22;5805;51.542;7.230;2023-07-31T11:00:23;20.10;99.90
11497;DHT22;5805;51.542;7.230;2023-07-31T11:03:01;20.00;99.90
11497;DHT22;5805;51.542;7.230;2023-07-31T11:05:50;20.00;99.90
11497;DHT22;5805;51.542;7.230;2023-07-31T11:08:17;20.00;99.90
11497;DHT22;5805;51.542;7.230;2023-07-31T11:10:44;20.00;99.90
11497;DHT22;5805;51.542;7.230;2023-07-31T11:13:10;20.10;99.90
11497;DHT22;5805;51.542;7.230;2023-07-31T11:15:36;20.20;99.90
11497;DHT22;5805;51.542;7.230;2023-07-31T11:18:02;20.40;99.90
11497;DHT22;5805;51.542;7.230;2023-07-31T11:20:30;20.40;99.90
11497;DHT22;5805;51.542;7.230;2023-07-31T11:22:58;20.50;99.90
11497;DHT22;5805;51.542;7.230;2023-07-31T11:25:24;20.60;99.90
11497;DHT22;5805;51.542;7.230;2023-07-31T11:27:50;20.80;99.90
11497;DHT22;5805;51.542;7.230;2023-07-31T11:30:18;20.80;99.90
11497;DHT22;5805;51.542;7.230;2023-07-31T11:32:44;20.70;99.90
11497;DHT22;5805;51.542;7.230;2023-07-31T11:35:12;20.80;99.90
11497;DHT22;5805;51.542;7.230;2023-07-31T11:37:42;20.80;99.90
11497;DHT22;5805;51.542;7.230;2023-07-31T11:40:10;20.90;99.90
11497;DHT22;5805;51.542;7.230;2023-07-31T11:42:36;20.90;99.90
11497;DHT22;5805;51.542;7.230;2023-07-31T11:45:03;21.00;99.90
11497;DHT22;5805;51.542;7.230;2023-07-31T11:47:30;21.00;99.90
11497;DHT22;5805;51.542;7.230;2023-07-31T11:49:57;21.00;99.90
11497;DHT22;5805;51.542;7.230;2023-07-31T11:52:24;20.90;99.90
11497;DHT22;5805;51.542;7.230;2023-07-31T11:54:50;21.00;99.90
11497;DHT22;5805;51.542;7.230;2023-07-31T11:57:18;21.10;99.90
11497;DHT22;5805;51.542;7.230;2023-07-31T11:59:44;21.30;99.90
11497;DHT22;5805;51.542;7.230;2023-07-31T12:02:10;21.50;99.90
11497;DHT22;5805;51.542;7.230;2023-07-31T12:04:36;21.60;99.90
11497;DHT22;5805;51.542;7.230;2023-07-31T12:07:02;21.70;99.90
11497;DHT22;5805;51.542;7.230;2023-07-31T12:09:28;21.80;99.90
11497;DHT22;5805;51.542;7.230;2023-07-31T12:11:53;21.90;99.90
11497;DHT22;5805;51.542;7.230;2023-07-31T12:14:24;22.00;99.90
11497;DHT22;5805;51.542;7.230;2023-07-31T12:16:53;22.20;99.90
11497;DHT22;5805;51.542;7.230;2023-07-31T12:19:19;22.20;99.90
11497;DHT22;5805;51.542;7.230;2023-07-31T12:21:45;22.30;99.90
11497;DHT22;5805;51.542;7.230;2023-07-31T12:24:10;22.20;99.90
11497;DHT22;5805;51.542;7.230;2023-07-31T12:26:36;22.10;99.90
11497;DHT22;5805;51.542;7.230;2023-07-31T12:29:10;21.90;99.90
11497;DHT22;5805;51.542;7.230;2023-07-31T12:31:35;21.80;99.90
11497;DHT22;5805;51.542;7.230;2023-07-31T12:34:01;21.70;99.90
11497;DHT22;5805;51.542;7.230;2023-07-31T12:36:27;21.60;99.90
11497;DHT22;5805;51.542;7.230;2023-07-31T12:38:53;21.50;99.90
11497;DHT22;5805;51.542;7.230;2023-07-31T12:41:20;21.50;99.90
11497;DHT22;5805;51.542;7.230;2023-07-31T12:43:45;21.40;99.90
11497;DHT22;5805;51.542;7.230;2023-07-31T12:46:13;21.40;99.90
11497;DHT22;5805;51.542;7.230;2023-07-31T12:48:39;21.40;99.90
11497;DHT22;5805;51.542;7.230;2023-07-31T12:51:05;21.20;99.90
11497;DHT22;5805;51.542;7.230;2023-07-31T12:53:30;21.10;99.90
11497;DHT22;5805;51.542;7.230;2023-07-31T12:55:56;21.10;99.90
11497;DHT22;5805;51.542;7.230;2023-07-31T12:58:22;21.20;99.90
11497;DHT22;5805;51.542;7.230;2023-07-31T13:00:48;21.40;99.90
11497;DHT22;5805;51.542;7.230;2023-07-31T13:03:15;21.50;99.90
11497;DHT22;5805;51.542;7.230;2023-07-31T13:05:40;21.60;99.90
11497;DHT22;5805;51.542;7.230;2023-07-31T13:08:06;21.70;99.90
11497;DHT22;5805;51.542;7.230;2023-07-31T13:10:32;21.90;99.90
11497;DHT22;5805;51.542;7.230;2023-07-31T13:12:58;21.90;99.90
11497;DHT22;5805;51.542;7.230;2023-07-31T13:15:24;21.90;99.90
11497;DHT22;5805;51.542;7.230;2023-07-31T13:17:49;21.90;99.90
11497;DHT22;5805;51.542;7.230;2023-07-31T13:20:17;21.80;99.90
11497;DHT22;5805;51.542;7.230;2023-07-31T13:22:42;21.80;99.90
11497;DHT22;5805;51.542;7.230;2023-07-31T13:25:08;21.80;99.90
11497;DHT22;5805;51.542;7.230;2023-07-31T13:27:34;21.80;99.90
11497;DHT22;5805;51.542;7.230;2023-07-31T13:30:00;21.80;99.90
11497;DHT22;5805;51.542;7.230;2023-07-31T13:32:26;21.70;99.90
11497;DHT22;5805;51.542;7.230;2023-07-31T13:34:51;21.70;99.90
11497;DHT22;5805;51.542;7.230;2023-07-31T13:37:18;21.80;99.90
11497;DHT22;5805;51.542;7.230;2023-07-31T13:39:44;21.90;99.90
11497;DHT22;5805;51.542;7.230;2023-07-31T13:42:10;21.90;99.90
11497;DHT22;5805;51.542;7.230;2023-07-31T13:44:36;22.10;99.90
11497;DHT22;5805;51.542;7.230;2023-07-31T13:47:02;22.20;99.90
11497;DHT22;5805;51.542;7.230;2023-07-31T13:49:28;22.20;99.90
11497;DHT22;5805;51.542;7.230;2023-07-31T13:51:54;22.10;99.90
11497;DHT22;5805;51.542;7.230;2023-07-31T13:54:22;22.10;99.90
11497;DHT22;5805;51.542;7.230;2023-07-31T13:56:48;22.00;99.90
11497;DHT22;5805;51.542;7.230;2023-07-31T13:59:13;21.90;99.90
11497;DHT22;5805;51.542;7.230;2023-07-31T14:01:39;21.90;99.90
11497;DHT22;5805;51.542;7.230;2023-07-31T14:04:05;21.80;99.90
11497;DHT22;5805;51.542;7.230;2023-07-31T14:06:30;21.80;99.90
11497;DHT22;5805;51.542;7.230;2023-07-31T14:08:56;21.80;99.90
11497;DHT22;5805;51.542;7.230;2023-07-31T14:11:23;21.90;99.90
11497;DHT22;5805;51.542;7.230;2023-07-31T14:13:50;22.10;99.90
11497;DHT22;5805;51.542;7.230;2023-07-31T14:16:16;22.20;99.90
11497;DHT22;5805;51.542;7.230;2023-07-31T14:18:41;22.20;99.90
11497;DHT22;5805;51.542;7.230;2023-07-31T14:21:07;22.20;99.90
11497;DHT22;5805;51.542;7.230;2023-07-31T14:23:34;22.10;99.90
11497;DHT22;5805;51.542;7.230;2023-07-31T14:26:00;22.20;99.90
11497;DHT22;5805;51.542;7.230;2023-07-31T14:28:27;22.30;99.90
11497;DHT22;5805;51.542;7.230;2023-07-31T14:30:52;22.60;99.90
11497;DHT22;5805;51.542;7.230;2023-07-31T14:33:18;22.80;99.90
11497;DHT22;5805;51.542;7.230;2023-07-31T14:35:44;22.90;99.90
11497;DHT22;5805;51.542;7.230;2023-07-31T14:38:09;22.80;99.90
11497;DHT22;5805;51.542;7.230;2023-07-31T14:40:35;22.70;99.90
11497;DHT22;5805;51.542;7.230;2023-07-31T14:43:01;22.70;99.90
11497;DHT22;5805;51.542;7.230;2023-07-31T14:45:28;22.70;99.90
11497;DHT22;5805;51.542;7.230;2023-07-31T14:47:54;22.60;99.90
11497;DHT22;5805;51.542;7.230;2023-07-31T14:50:20;22.50;99.90
11497;DHT22;5805;51.542;7.230;2023-07-31T14:52:46;22.40;99.90
11497;DHT22;5805;51.542;7.230;2023-07-31T14:55:12;22.30;99.90
11497;DHT22;5805;51.542;7.230;2023-07-31T14:57:38;22.20;99.90
11497;DHT22;5805;51.542;7.230;2023-07-31T15:00:04;22.10;99.90
11497;DHT22;5805;51.542;7.230;2023-07-31T15:02:31;21.90;99.90
11497;DHT22;5805;51.542;7.230;2023-07-31T15:04:57;21.80;99.90
11497;DHT22;5805;51.542;7.230;2023-07-31T15:07:23;21.70;99.90
11497;DHT22;5805;51.542;7.230;2023-07-31T15:09:48;21.70;99.90
11497;DHT22;5805;51.542;7.230;2023-07-31T15:12:14;21.70;99.90
11497;DHT22;5805;51.542;7.230;2023-07-31T15:14:40;21.70;99.90
11497;DHT22;5805;51.542;7.230;2023-07-31T15:17:06;21.70;99.90
11497;DHT22;5805;51.542;7.230;2023-07-31T15:19:33;21.70;99.90
11497;DHT22;5805;51.542;7.230;2023-07-31T15:21:58;21.70;99.90
11497;DHT22;5805;51.542;7.230;2023-07-31T15:24:24;21.70;99.90
11497;DHT22;5805;51.542;7.230;2023-07-31T15:26:50;21.70;99.90
11497;DHT22;5805;51.542;7.230;2023-07-31T15:29:15;21.60;99.90
11497;DHT22;5805;51.542;7.230;2023-07-31T15:31:41;21.50;99.90
11497;DHT22;5805;51.542;7.230;2023-07-31T15:34:07;21.50;99.90
11497;DHT22;5805;51.542;7.230;2023-07-31T15:36:34;21.40;99.90
11497;DHT22;5805;51.542;7.230;2023-07-31T15:39:00;21.40;99.90
11497;DHT22;5805;51.542;7.230;2023-07-31T15:41:26;21.40;99.90